sensor_id;sensor_type;location;lat;lon;timestamp;temperature;humidity
55313;DHT22;46892;45.668;11.756;2022-08-19T00:01:51;21.20;82.40
55313;DHT22;46892;45.668;11.756;2022-08-19T00:04:19;21.10;83.00
55313;DHT22;46892;45.668;11.756;2022-08-19T00:06:46;21.00;83.40
55313;DHT22;46892;45.668;11.756;2022-08-19T00:09:14;21.00;83.50
55313;DHT22;46892;45.668;11.756;2022-08-19T00:11:40;21.00;83.50
55313;DHT22;46892;45.668;11.756;2022-08-19T00:14:09;21.10;82.80
55313;DHT22;46892;45.668;11.756;2022-08-19T00:16:36;21.00;83.60
55313;DHT22;46892;45.668;11.756;2022-08-19T00:19:03;20.90;84.00
55313;DHT22;46892;45.668;11.756;2022-08-19T00:21:29;20.90;84.00
55313;DHT22;46892;45.668;11.756;2022-08-19T00:23:57;20.80;84.20
55313;DHT22;46892;45.668;11.756;2022-08-19T00:26:24;20.90;84.40
55313;DHT22;46892;45.668;11.756;2022-08-19T00:28:50;21.00;84.50
55313;DHT22;46892;45.668;11.756;2022-08-19T00:31:16;21.00;84.80
55313;DHT22;46892;45.668;11.756;2022-08-19T00:33:42;20.90;85.00
55313;DHT22;46892;45.668;11.756;2022-08-19T00:36:09;21.00;85.20
55313;DHT22;46892;45.668;11.756;2022-08-19T00:38:35;21.00;85.10
55313;DHT22;46892;45.668;11.756;2022-08-19T00:41:01;20.90;85.30
55313;DHT22;46892;45.668;11.756;2022-08-19T00:43:27;20.80;85.20
55313;DHT22;46892;45.668;11.756;2022-08-19T00:45:54;20.80;85.10
55313;DHT22;46892;45.668;11.756;2022-08-19T00:48:21;20.70;85.30
55313;DHT22;46892;45.668;11.756;2022-08-19T00:50:48;20.70;85.80
55313;DHT22;46892;45.668;11.756;2022-08-19T00:53:17;20.60;86.10
55313;DHT22;46892;45.668;11.756;2022-08-19T00:55:49;20.50;85.70
55313;DHT22;46892;45.668;11.756;2022-08-19T00:58:18;20.40;86.00
55313;DHT22;46892;45.668;11.756;2022-08-19T01:00:46;20.40;85.90
55313;DHT22;46892;45.668;11.756;2022-08-19T01:03:15;20.40;85.90
55313;DHT22;46892;45.668;11.756;2022-08-19T01:05:43;20.60;86.00
55313;DHT22;46892;45.668;11.756;2022-08-19T01:08:10;20.70;86.40
55313;DHT22;46892;45.668;11.756;2022-08-19T01:10:40;20.80;86.30
55313;DHT22;46892;45.668;11.756;2022-08-19T01:13:07;20.70;86.10
55313;DHT22;46892;45.668;11.756;2022-08-19T01:15:38;20.70;86.40
55313;DHT22;46892;45.668;11.756;2022-08-19T01:18:08;20.70;86.20
55313;DHT22;46892;45.668;11.756;2022-08-19T01:20:35;20.50;86.50
55313;DHT22;46892;45.668;11.756;2022-08-19T01:23:01;20.50;86.20
55313;DHT22;46892;45.668;11.756;2022-08-19T01:25:34;20.30;86.60
55313;DHT22;46892;45.668;11.756;2022-08-19T01:28:02;20.30;86.70
55313;DHT22;46892;45.668;11.756;2022-08-19T01:30:31;20.30;87.10
55313;DHT22;46892;45.668;11.756;2022-08-19T01:32:57;20.20;87.30
55313;DHT22;46892;45.668;11.756;2022-08-19T01:35:26;20.20;87.50
55313;DHT22;46892;45.668;11.756;2022-08-19T01:37:58;20.10;87.50
55313;DHT22;46892;45.668;11.756;2022-08-19T01:40:30;20.00;88.00
55313;DHT22;46892;45.668;11.756;2022-08-19T01:42:56;20.00;88.30
55313;DHT22;46892;45.668;11.756;2022-08-19T01:45:24;20.00;88.20
55313;DHT22;46892;45.668;11.756;2022-08-19T01:47:51;20.00;87.50
55313;DHT22;46892;45.668;11.756;2022-08-19T01:50:17;20.00;87.50
55313;DHT22;46892;45.668;11.756;2022-08-19T01:52:43;20.00;87.30
55313;DHT22;46892;45.668;11.756;2022-08-19T01:55:13;20.10;87.50
55313;DHT22;46892;45.668;11.756;2022-08-19T01:57:41;20.10;87.50
55313;DHT22;46892;45.668;11.756;2022-08-19T02:00:13;20.10;87.30
55313;DHT22;46892;45.668;11.756;2022-08-19T02:02:40;20.30;87.10
55313;DHT22;46892;45.668;11.756;2022-08-19T02:05:07;20.40;86.70
55313;DHT22;46892;45.668;11.756;2022-08-19T02:07:34;20.30;86.40
55313;DHT22;46892;45.668;11.756;2022-08-19T02:10:03;20.30;86.90
55313;DHT22;46892;45.668;11.756;2022-08-19T02:12:29;20.30;87.10
55313;DHT22;46892;45.668;11.756;2022-08-19T02:14:55;20.20;87.10
55313;DHT22;46892;45.668;11.756;2022-08-19T02:17:20;20.30;87.20
55313;DHT22;46892;45.668;11.756;2022-08-19T02:19:46;20.40;87.20
55313;DHT22;46892;45.668;11.756;2022-08-19T02:22:14;20.40;87.00
55313;DHT22;46892;45.668;11.756;2022-08-19T02:24:40;20.30;86.90
55313;DHT22;46892;45.668;11.756;2022-08-19T02:27:05;20.30;86.90
55313;DHT22;46892;45.668;11.756;2022-08-19T02:29:31;20.20;87.00
55313;DHT22;46892;45.668;11.756;2022-08-19T02:31:57;20.10;87.40
55313;DHT22;46892;45.668;11.756;2022-08-19T02:34:23;20.00;87.70
55313;DHT22;46892;45.668;11.756;2022-08-19T02:36:51;19.90;87.70
55313;DHT22;46892;45.668;11.756;2022-08-19T02:39:17;20.00;87.20
55313;DHT22;46892;45.668;11.756;2022-08-19T02:41:43;20.00;87.20
55313;DHT22;46892;45.668;11.756;2022-08-19T02:44:08;20.10;86.60
55313;DHT22;46892;45.668;11.756;2022-08-19T02:46:34;20.00;86.60
55313;DHT22;46892;45.668;11.756;2022-08-19T02:49:03;20.10;86.50
55313;DHT22;46892;45.668;11.756;2022-08-19T02:51:36;20.10;86.60
55313;DHT22;46892;45.668;11.756;2022-08-19T02:54:04;20.20;85.70
55313;DHT22;46892;45.668;11.756;2022-08-19T02:56:30;20.20;85.10
55313;DHT22;46892;45.668;11.756;2022-08-19T02:58:57;20.20;84.60
55313;DHT22;46892;45.668;11.756;2022-08-19T03:01:29;20.20;84.50
55313;DHT22;46892;45.668;11.756;2022-08-19T03:03:56;20.20;84.80
55313;DHT22;46892;45.668;11.756;2022-08-19T03:06:22;20.30;84.30
55313;DHT22;46892;45.668;11.756;2022-08-19T03:08:48;20.40;83.60
55313;DHT22;46892;45.668;11.756;2022-08-19T03:11:18;20.40;83.40
55313;DHT22;46892;45.668;11.756;2022-08-19T03:13:44;20.30;83.50
55313;DHT22;46892;45.668;11.756;2022-08-19T03:16:11;20.30;82.80
55313;DHT22;46892;45.668;11.756;2022-08-19T03:18:37;20.30;83.00
55313;DHT22;46892;45.668;11.756;2022-08-19T03:21:03;20.20;82.70
55313;DHT22;46892;45.668;11.756;2022-08-19T03:23:29;20.20;83.00
55313;DHT22;46892;45.668;11.756;2022-08-19T03:25:55;20.20;82.90
55313;DHT22;46892;45.668;11.756;2022-08-19T03:28:21;20.10;82.70
55313;DHT22;46892;45.668;11.756;2022-08-19T03:31:05;20.10;79.80
55313;DHT22;46892;45.668;11.756;2022-08-19T03:33:33;20.20;81.70
55313;DHT22;46892;45.668;11.756;2022-08-19T03:36:10;20.20;81.20
55313;DHT22;46892;45.668;11.756;2022-08-19T03:38:47;20.20;81.20
55313;DHT22;46892;45.668;11.756;2022-08-19T03:41:18;20.10;81.00
55313;DHT22;46892;45.668;11.756;2022-08-19T03:43:45;20.00;81.30
55313;DHT22;46892;45.668;11.756;2022-08-19T03:46:21;20.00;81.50
55313;DHT22;46892;45.668;11.756;2022-08-19T03:48:48;20.00;81.50
55313;DHT22;46892;45.668;11.756;2022-08-19T03:51:30;20.00;81.40
55313;DHT22;46892;45.668;11.756;2022-08-19T03:53:58;20.10;81.40
55313;DHT22;46892;45.668;11.756;2022-08-19T03:56:26;20.00;81.30
55313;DHT22;46892;45.668;11.756;2022-08-19T03:58:53;20.00;81.60
55313;DHT22;46892;45.668;11.756;2022-08-19T04:01:21;20.00;81.50
55313;DHT22;46892;45.668;11.756;2022-08-19T04:03:48;20.00;81.30
55313;DHT22;46892;45.668;11.756;2022-08-19T04:06:21;20.00;81.30
55313;DHT22;46892;45.668;11.756;2022-08-19T04:08:49;20.00;81.30
55313;DHT22;46892;45.668;11.756;2022-08-19T04:11:23;20.00;81.60
55313;DHT22;46892;45.668;11.756;2022-08-19T04:13:50;20.00;82.30
55313;DHT22;46892;45.668;11.756;2022-08-19T04:16:23;20.10;82.70
55313;DHT22;46892;45.668;11.756;2022-08-19T04:18:49;20.00;83.00
55313;DHT22;46892;45.668;11.756;2022-08-19T04:21:18;20.10;82.60
55313;DHT22;46892;45.668;11.756;2022-08-19T04:23:44;20.10;82.10
55313;DHT22;46892;45.668;11.756;2022-08-19T04:26:17;20.00;83.00
55313;DHT22;46892;45.668;11.756;2022-08-19T04:28:44;20.00;82.10
55313;DHT22;46892;45.668;11.756;2022-08-19T04:31:24;20.00;82.40
55313;DHT22;46892;45.668;11.756;2022-08-19T04:33:52;20.00;82.40
55313;DHT22;46892;45.668;11.756;2022-08-19T04:36:25;20.10;82.20
55313;DHT22;46892;45.668;11.756;2022-08-19T04:38:58;20.00;82.40
55313;DHT22;46892;45.668;11.756;2022-08-19T04:41:24;19.90;82.80
55313;DHT22;46892;45.668;11.756;2022-08-19T04:44:10;19.90;83.00
55313;DHT22;46892;45.668;11.756;2022-08-19T04:46:36;19.90;82.90
55313;DHT22;46892;45.668;11.756;2022-08-19T04:49:04;19.80;82.90
55313;DHT22;46892;45.668;11.756;2022-08-19T04:51:31;19.80;83.30
55313;DHT22;46892;45.668;11.756;2022-08-19T04:53:57;19.70;83.40
55313;DHT22;46892;45.668;11.756;2022-08-19T04:56:23;19.80;83.60
55313;DHT22;46892;45.668;11.756;2022-08-19T04:58:51;19.80;84.30
55313;DHT22;46892;45.668;11.756;2022-08-19T05:01:23;19.80;85.20
55313;DHT22;46892;45.668;11.756;2022-08-19T05:03:49;19.80;84.00
55313;DHT22;46892;45.668;11.756;2022-08-19T05:06:17;19.90;84.40
55313;DHT22;46892;45.668;11.756;2022-08-19T05:08:44;19.80;84.50
55313;DHT22;46892;45.668;11.756;2022-08-19T05:13:41;19.70;85.10
55313;DHT22;46892;45.668;11.756;2022-08-19T05:16:08;19.80;85.10
55313;DHT22;46892;45.668;11.756;2022-08-19T05:18:34;19.80;85.20
55313;DHT22;46892;45.668;11.756;2022-08-19T05:21:33;20.00;85.10
55313;DHT22;46892;45.668;11.756;2022-08-19T05:24:18;20.20;83.90
55313;DHT22;46892;45.668;11.756;2022-08-19T05:26:46;20.30;83.50
55313;DHT22;46892;45.668;11.756;2022-08-19T05:29:14;20.30;83.70
55313;DHT22;46892;45.668;11.756;2022-08-19T05:31:40;20.20;84.30
55313;DHT22;46892;45.668;11.756;2022-08-19T05:34:06;20.30;84.70
55313;DHT22;46892;45.668;11.756;2022-08-19T05:36:38;20.40;84.50
55313;DHT22;46892;45.668;11.756;2022-08-19T05:39:06;20.50;84.10
55313;DHT22;46892;45.668;11.756;2022-08-19T05:41:32;20.70;83.80
55313;DHT22;46892;45.668;11.756;2022-08-19T05:44:01;20.70;83.90
55313;DHT22;46892;45.668;11.756;2022-08-19T05:46:27;20.80;83.60
55313;DHT22;46892;45.668;11.756;2022-08-19T05:48:52;21.20;82.70
55313;DHT22;46892;45.668;11.756;2022-08-19T05:51:22;22.20;81.50
55313;DHT22;46892;45.668;11.756;2022-08-19T05:53:48;23.20;78.60
55313;DHT22;46892;45.668;11.756;2022-08-19T05:56:16;23.80;74.50
55313;DHT22;46892;45.668;11.756;2022-08-19T05:58:43;24.30;73.00
55313;DHT22;46892;45.668;11.756;2022-08-19T06:01:15;24.40;72.30
55313;DHT22;46892;45.668;11.756;2022-08-19T06:03:41;24.40;72.30
55313;DHT22;46892;45.668;11.756;2022-08-19T06:06:09;24.00;72.60
55313;DHT22;46892;45.668;11.756;2022-08-19T06:08:35;24.00;72.90
55313;DHT22;46892;45.668;11.756;2022-08-19T06:11:17;24.10;73.10
55313;DHT22;46892;45.668;11.756;2022-08-19T06:13:45;24.20;72.50
55313;DHT22;46892;45.668;11.756;2022-08-19T06:16:13;24.20;72.60
55313;DHT22;46892;45.668;11.756;2022-08-19T06:18:45;24.00;72.60
55313;DHT22;46892;45.668;11.756;2022-08-19T06:21:11;23.30;74.00
55313;DHT22;46892;45.668;11.756;2022-08-19T06:23:37;22.70;75.80
55313;DHT22;46892;45.668;11.756;2022-08-19T06:26:04;22.50;76.10
55313;DHT22;46892;45.668;11.756;2022-08-19T06:28:30;22.30;76.90
55313;DHT22;46892;45.668;11.756;2022-08-19T06:30:55;22.20;78.00
55313;DHT22;46892;45.668;11.756;2022-08-19T06:33:21;22.00;78.90
55313;DHT22;46892;45.668;11.756;2022-08-19T06:35:46;21.80;79.70
55313;DHT22;46892;45.668;11.756;2022-08-19T06:38:12;21.80;79.50
55313;DHT22;46892;45.668;11.756;2022-08-19T06:40:38;21.70;80.20
55313;DHT22;46892;45.668;11.756;2022-08-19T06:43:04;21.80;80.00
55313;DHT22;46892;45.668;11.756;2022-08-19T06:45:30;21.90;79.90
55313;DHT22;46892;45.668;11.756;2022-08-19T06:47:57;22.20;78.20
55313;DHT22;46892;45.668;11.756;2022-08-19T06:50:23;22.60;77.80
55313;DHT22;46892;45.668;11.756;2022-08-19T06:52:49;22.80;76.70
55313;DHT22;46892;45.668;11.756;2022-08-19T06:55:15;22.80;76.30
55313;DHT22;46892;45.668;11.756;2022-08-19T06:57:41;22.90;76.70
55313;DHT22;46892;45.668;11.756;2022-08-19T07:00:09;22.90;75.30
55313;DHT22;46892;45.668;11.756;2022-08-19T07:02:40;22.80;75.70
55313;DHT22;46892;45.668;11.756;2022-08-19T07:05:09;22.70;75.30
55313;DHT22;46892;45.668;11.756;2022-08-19T07:07:35;22.50;76.70
55313;DHT22;46892;45.668;11.756;2022-08-19T07:10:00;22.30;77.40
55313;DHT22;46892;45.668;11.756;2022-08-19T07:12:28;22.30;76.90
55313;DHT22;46892;45.668;11.756;2022-08-19T07:14:57;22.20;77.80
55313;DHT22;46892;45.668;11.756;2022-08-19T07:17:23;22.20;78.90
55313;DHT22;46892;45.668;11.756;2022-08-19T07:19:48;22.10;78.90
55313;DHT22;46892;45.668;11.756;2022-08-19T07:22:15;22.10;78.90
55313;DHT22;46892;45.668;11.756;2022-08-19T07:24:42;22.00;79.40
55313;DHT22;46892;45.668;11.756;2022-08-19T07:27:07;22.00;79.80
55313;DHT22;46892;45.668;11.756;2022-08-19T07:29:35;22.00;80.00
55313;DHT22;46892;45.668;11.756;2022-08-19T07:32:02;21.90;80.20
55313;DHT22;46892;45.668;11.756;2022-08-19T07:34:29;22.00;79.80
55313;DHT22;46892;45.668;11.756;2022-08-19T07:36:56;21.90;79.70
55313;DHT22;46892;45.668;11.756;2022-08-19T07:39:28;21.90;79.50
55313;DHT22;46892;45.668;11.756;2022-08-19T07:41:56;22.00;78.80
55313;DHT22;46892;45.668;11.756;2022-08-19T07:44:22;22.00;78.80
55313;DHT22;46892;45.668;11.756;2022-08-19T07:46:52;21.90;78.90
55313;DHT22;46892;45.668;11.756;2022-08-19T07:49:18;21.80;80.30
55313;DHT22;46892;45.668;11.756;2022-08-19T07:52:07;21.80;80.50
55313;DHT22;46892;45.668;11.756;2022-08-19T07:54:35;21.70;80.20
55313;DHT22;46892;45.668;11.756;2022-08-19T07:57:02;21.70;81.30
55313;DHT22;46892;45.668;11.756;2022-08-19T07:59:29;21.60;81.70
55313;DHT22;46892;45.668;11.756;2022-08-19T08:01:56;21.60;82.00
55313;DHT22;46892;45.668;11.756;2022-08-19T08:04:22;21.60;82.50
55313;DHT22;46892;45.668;11.756;2022-08-19T08:07:07;21.60;82.30
55313;DHT22;46892;45.668;11.756;2022-08-19T08:09:52;21.60;82.30
55313;DHT22;46892;45.668;11.756;2022-08-19T08:12:30;21.60;82.20
55313;DHT22;46892;45.668;11.756;2022-08-19T08:14:58;21.60;82.20
55313;DHT22;46892;45.668;11.756;2022-08-19T08:17:28;21.60;82.10
55313;DHT22;46892;45.668;11.756;2022-08-19T08:19:54;21.60;82.10
55313;DHT22;46892;45.668;11.756;2022-08-19T08:22:21;21.70;81.70
55313;DHT22;46892;45.668;11.756;2022-08-19T08:25:07;21.70;81.00
55313;DHT22;46892;45.668;11.756;2022-08-19T08:27:42;21.60;81.90
55313;DHT22;46892;45.668;11.756;2022-08-19T08:30:16;21.60;82.50
55313;DHT22;46892;45.668;11.756;2022-08-19T08:32:42;21.60;82.50
55313;DHT22;46892;45.668;11.756;2022-08-19T08:35:09;21.70;81.20
55313;DHT22;46892;45.668;11.756;2022-08-19T08:37:36;21.70;80.40
55313;DHT22;46892;45.668;11.756;2022-08-19T08:40:14;21.70;81.00
55313;DHT22;46892;45.668;11.756;2022-08-19T08:42:53;21.70;81.00
55313;DHT22;46892;45.668;11.756;2022-08-19T08:45:22;21.60;81.30
55313;DHT22;46892;45.668;11.756;2022-08-19T08:47:50;21.60;81.30
55313;DHT22;46892;45.668;11.756;2022-08-19T08:50:27;21.50;80.90
55313;DHT22;46892;45.668;11.756;2022-08-19T08:52:56;21.40;81.80
55313;DHT22;46892;45.668;11.756;2022-08-19T08:55:27;21.30;82.50
55313;DHT22;46892;45.668;11.756;2022-08-19T08:58:07;21.30;82.20
55313;DHT22;46892;45.668;11.756;2022-08-19T09:00:40;21.20;82.90
55313;DHT22;46892;45.668;11.756;2022-08-19T09:03:26;21.30;82.30
55313;DHT22;46892;45.668;11.756;2022-08-19T09:06:04;21.20;81.90
55313;DHT22;46892;45.668;11.756;2022-08-19T09:14:32;21.10;80.20
55313;DHT22;46892;45.668;11.756;2022-08-19T09:16:59;21.10;80.30
55313;DHT22;46892;45.668;11.756;2022-08-19T09:19:29;21.20;80.20
55313;DHT22;46892;45.668;11.756;2022-08-19T09:21:55;21.30;79.10
55313;DHT22;46892;45.668;11.756;2022-08-19T09:24:20;21.40;79.10
55313;DHT22;46892;45.668;11.756;2022-08-19T09:26:46;21.50;78.60
55313;DHT22;46892;45.668;11.756;2022-08-19T09:29:12;21.40;79.00
55313;DHT22;46892;45.668;11.756;2022-08-19T09:31:38;21.50;79.70
55313;DHT22;46892;45.668;11.756;2022-08-19T09:34:04;21.40;79.30
55313;DHT22;46892;45.668;11.756;2022-08-19T09:36:31;21.50;78.40
55313;DHT22;46892;45.668;11.756;2022-08-19T09:39:05;21.60;78.70
55313;DHT22;46892;45.668;11.756;2022-08-19T09:41:31;21.70;77.70
55313;DHT22;46892;45.668;11.756;2022-08-19T09:43:58;21.80;76.20
55313;DHT22;46892;45.668;11.756;2022-08-19T09:46:26;21.90;77.40
55313;DHT22;46892;45.668;11.756;2022-08-19T09:48:53;22.00;76.70
55313;DHT22;46892;45.668;11.756;2022-08-19T09:51:24;22.20;74.70
55313;DHT22;46892;45.668;11.756;2022-08-19T09:53:51;22.10;75.20
55313;DHT22;46892;45.668;11.756;2022-08-19T09:56:20;22.10;75.70
55313;DHT22;46892;45.668;11.756;2022-08-19T09:58:46;22.10;75.90
55313;DHT22;46892;45.668;11.756;2022-08-19T10:01:21;22.20;76.50
55313;DHT22;46892;45.668;11.756;2022-08-19T10:03:48;22.20;75.80
55313;DHT22;46892;45.668;11.756;2022-08-19T10:06:15;22.30;74.90
55313;DHT22;46892;45.668;11.756;2022-08-19T10:08:41;22.30;75.20
55313;DHT22;46892;45.668;11.756;2022-08-19T10:11:09;22.30;75.60
55313;DHT22;46892;45.668;11.756;2022-08-19T10:13:35;22.30;76.00
55313;DHT22;46892;45.668;11.756;2022-08-19T10:16:05;22.30;76.60
55313;DHT22;46892;45.668;11.756;2022-08-19T10:18:32;22.50;75.40
55313;DHT22;46892;45.668;11.756;2022-08-19T10:21:26;22.70;75.80
55313;DHT22;46892;45.668;11.756;2022-08-19T10:23:54;22.70;74.00
55313;DHT22;46892;45.668;11.756;2022-08-19T10:26:26;22.80;75.80
55313;DHT22;46892;45.668;11.756;2022-08-19T10:28:52;22.80;74.70
55313;DHT22;46892;45.668;11.756;2022-08-19T10:31:21;22.90;74.50
55313;DHT22;46892;45.668;11.756;2022-08-19T10:33:49;23.00;74.10
55313;DHT22;46892;45.668;11.756;2022-08-19T10:36:17;23.10;74.20
55313;DHT22;46892;45.668;11.756;2022-08-19T10:38:46;23.10;74.60
55313;DHT22;46892;45.668;11.756;2022-08-19T10:41:19;23.10;73.50
55313;DHT22;46892;45.668;11.756;2022-08-19T10:43:45;23.10;73.40
55313;DHT22;46892;45.668;11.756;2022-08-19T10:46:15;23.20;74.50
55313;DHT22;46892;45.668;11.756;2022-08-19T10:48:42;23.20;72.70
55313;DHT22;46892;45.668;11.756;2022-08-19T10:51:08;23.30;72.60
55313;DHT22;46892;45.668;11.756;2022-08-19T10:53:53;23.20;71.90
55313;DHT22;46892;45.668;11.756;2022-08-19T10:56:19;23.20;72.30
55313;DHT22;46892;45.668;11.756;2022-08-19T10:59:04;23.20;73.50
55313;DHT22;46892;45.668;11.756;2022-08-19T11:01:31;23.30;72.50
55313;DHT22;46892;45.668;11.756;2022-08-19T11:03:59;23.30;72.50
55313;DHT22;46892;45.668;11.756;2022-08-19T11:06:25;23.50;72.90
55313;DHT22;46892;45.668;11.756;2022-08-19T11:08:52;23.60;72.70
55313;DHT22;46892;45.668;11.756;2022-08-19T11:11:18;23.60;73.80
55313;DHT22;46892;45.668;11.756;2022-08-19T11:13:44;23.70;73.70
55313;DHT22;46892;45.668;11.756;2022-08-19T11:16:14;23.80;71.40
55313;DHT22;46892;45.668;11.756;2022-08-19T11:18:46;23.90;71.20
55313;DHT22;46892;45.668;11.756;2022-08-19T11:21:15;23.90;71.50
55313;DHT22;46892;45.668;11.756;2022-08-19T11:23:46;24.00;72.00
55313;DHT22;46892;45.668;11.756;2022-08-19T11:26:13;24.10;72.00
55313;DHT22;46892;45.668;11.756;2022-08-19T11:28:39;24.20;71.60
55313;DHT22;46892;45.668;11.756;2022-08-19T11:31:10;24.20;72.20
55313;DHT22;46892;45.668;11.756;2022-08-19T11:33:36;24.30;71.90
55313;DHT22;46892;45.668;11.756;2022-08-19T11:36:02;24.40;71.40
55313;DHT22;46892;45.668;11.756;2022-08-19T11:38:28;24.50;71.50
55313;DHT22;46892;45.668;11.756;2022-08-19T11:40:59;24.50;72.30
55313;DHT22;46892;45.668;11.756;2022-08-19T11:43:26;24.50;70.40
55313;DHT22;46892;45.668;11.756;2022-08-19T11:45:53;24.60;70.40
55313;DHT22;46892;45.668;11.756;2022-08-19T11:48:19;24.40;70.10
55313;DHT22;46892;45.668;11.756;2022-08-19T11:50:52;24.40;70.60
55313;DHT22;46892;45.668;11.756;2022-08-19T11:53:20;24.30;70.90
55313;DHT22;46892;45.668;11.756;2022-08-19T11:55:47;24.20;70.70
55313;DHT22;46892;45.668;11.756;2022-08-19T11:58:15;24.00;70.90
55313;DHT22;46892;45.668;11.756;2022-08-19T12:00:41;23.90;71.40
55313;DHT22;46892;45.668;11.756;2022-08-19T12:03:07;23.70;71.30
55313;DHT22;46892;45.668;11.756;2022-08-19T12:05:35;23.60;72.10
55313;DHT22;46892;45.668;11.756;2022-08-19T12:08:01;23.50;72.20
55313;DHT22;46892;45.668;11.756;2022-08-19T12:10:27;23.50;72.50
55313;DHT22;46892;45.668;11.756;2022-08-19T12:12:53;23.30;72.80
55313;DHT22;46892;45.668;11.756;2022-08-19T12:15:18;23.30;73.60
55313;DHT22;46892;45.668;11.756;2022-08-19T12:17:44;23.30;73.70
55313;DHT22;46892;45.668;11.756;2022-08-19T12:20:11;23.20;73.30
55313;DHT22;46892;45.668;11.756;2022-08-19T12:22:39;23.20;73.60
55313;DHT22;46892;45.668;11.756;2022-08-19T12:25:09;23.20;74.20
55313;DHT22;46892;45.668;11.756;2022-08-19T12:27:35;23.20;74.50
55313;DHT22;46892;45.668;11.756;2022-08-19T12:30:05;23.40;74.70
55313;DHT22;46892;45.668;11.756;2022-08-19T12:32:31;23.30;74.10
55313;DHT22;46892;45.668;11.756;2022-08-19T12:34:57;23.40;74.40
55313;DHT22;46892;45.668;11.756;2022-08-19T12:37:23;23.50;74.80
55313;DHT22;46892;45.668;11.756;2022-08-19T12:39:48;23.60;74.20
55313;DHT22;46892;45.668;11.756;2022-08-19T12:42:14;23.70;73.70
55313;DHT22;46892;45.668;11.756;2022-08-19T12:44:41;23.80;72.20
55313;DHT22;46892;45.668;11.756;2022-08-19T12:58:51;24.00;70.30
55313;DHT22;46892;45.668;11.756;2022-08-19T13:01:17;25.00;67.50
55313;DHT22;46892;45.668;11.756;2022-08-19T13:03:45;25.00;66.70
55313;DHT22;46892;45.668;11.756;2022-08-19T13:06:11;25.00;67.30
55313;DHT22;46892;45.668;11.756;2022-08-19T13:08:36;25.00;67.00
55313;DHT22;46892;45.668;11.756;2022-08-19T13:11:30;25.20;67.60
55313;DHT22;46892;45.668;11.756;2022-08-19T13:14:01;25.30;66.60
55313;DHT22;46892;45.668;11.756;2022-08-19T13:16:27;25.40;65.90
55313;DHT22;46892;45.668;11.756;2022-08-19T13:18:54;25.40;65.60
55313;DHT22;46892;45.668;11.756;2022-08-19T13:21:22;25.40;66.20
55313;DHT22;46892;45.668;11.756;2022-08-19T13:23:48;25.40;65.40
55313;DHT22;46892;45.668;11.756;2022-08-19T13:26:15;25.50;66.90
55313;DHT22;46892;45.668;11.756;2022-08-19T13:28:42;25.50;66.30
55313;DHT22;46892;45.668;11.756;2022-08-19T13:31:28;25.60;65.40
55313;DHT22;46892;45.668;11.756;2022-08-19T13:34:13;25.70;65.60
55313;DHT22;46892;45.668;11.756;2022-08-19T13:36:40;25.70;65.40
55313;DHT22;46892;45.668;11.756;2022-08-19T13:39:07;25.70;66.00
55313;DHT22;46892;45.668;11.756;2022-08-19T13:41:34;25.50;65.30
55313;DHT22;46892;45.668;11.756;2022-08-19T13:44:00;25.20;66.10
55313;DHT22;46892;45.668;11.756;2022-08-19T13:46:26;25.10;67.90
55313;DHT22;46892;45.668;11.756;2022-08-19T13:48:52;25.00;67.10
55313;DHT22;46892;45.668;11.756;2022-08-19T13:51:18;24.90;67.70
55313;DHT22;46892;45.668;11.756;2022-08-19T13:53:44;24.90;68.10
55313;DHT22;46892;45.668;11.756;2022-08-19T13:56:13;24.90;68.20
55313;DHT22;46892;45.668;11.756;2022-08-19T13:58:39;25.10;68.60
55313;DHT22;46892;45.668;11.756;2022-08-19T14:01:05;25.10;66.70
55313;DHT22;46892;45.668;11.756;2022-08-19T14:03:32;25.10;67.80
55313;DHT22;46892;45.668;11.756;2022-08-19T14:05:58;25.10;68.50
55313;DHT22;46892;45.668;11.756;2022-08-19T14:08:25;25.20;67.40
55313;DHT22;46892;45.668;11.756;2022-08-19T14:10:53;25.20;66.30
55313;DHT22;46892;45.668;11.756;2022-08-19T14:13:21;25.20;66.80
55313;DHT22;46892;45.668;11.756;2022-08-19T14:15:47;25.20;65.70
55313;DHT22;46892;45.668;11.756;2022-08-19T14:18:14;25.30;65.30
55313;DHT22;46892;45.668;11.756;2022-08-19T14:20:41;25.40;65.90
55313;DHT22;46892;45.668;11.756;2022-08-19T14:23:06;25.50;65.80
55313;DHT22;46892;45.668;11.756;2022-08-19T14:25:32;25.70;65.20
55313;DHT22;46892;45.668;11.756;2022-08-19T14:28:00;25.80;65.00
55313;DHT22;46892;45.668;11.756;2022-08-19T14:30:31;25.90;63.50
55313;DHT22;46892;45.668;11.756;2022-08-19T14:32:59;25.70;64.80
55313;DHT22;46892;45.668;11.756;2022-08-19T14:35:25;25.70;64.90
55313;DHT22;46892;45.668;11.756;2022-08-19T14:37:53;25.70;63.20
55313;DHT22;46892;45.668;11.756;2022-08-19T14:40:25;25.70;63.30
55313;DHT22;46892;45.668;11.756;2022-08-19T14:43:01;25.80;62.20
55313;DHT22;46892;45.668;11.756;2022-08-19T14:45:32;25.90;64.40
55313;DHT22;46892;45.668;11.756;2022-08-19T14:47:58;26.00;62.60
55313;DHT22;46892;45.668;11.756;2022-08-19T14:50:26;26.00;62.30
55313;DHT22;46892;45.668;11.756;2022-08-19T14:52:59;26.00;63.10
55313;DHT22;46892;45.668;11.756;2022-08-19T14:55:25;26.10;62.10
55313;DHT22;46892;45.668;11.756;2022-08-19T14:57:51;26.20;63.70
55313;DHT22;46892;45.668;11.756;2022-08-19T15:00:16;26.20;62.30
55313;DHT22;46892;45.668;11.756;2022-08-19T15:02:42;26.20;63.70
55313;DHT22;46892;45.668;11.756;2022-08-19T15:05:11;26.20;62.00
55313;DHT22;46892;45.668;11.756;2022-08-19T15:07:38;26.00;62.40
55313;DHT22;46892;45.668;11.756;2022-08-19T15:10:06;26.00;62.70
55313;DHT22;46892;45.668;11.756;2022-08-19T15:12:35;26.00;63.50
55313;DHT22;46892;45.668;11.756;2022-08-19T15:15:01;25.90;63.60
55313;DHT22;46892;45.668;11.756;2022-08-19T15:17:27;25.90;64.30
55313;DHT22;46892;45.668;11.756;2022-08-19T15:19:55;25.80;62.80
55313;DHT22;46892;45.668;11.756;2022-08-19T15:22:21;25.80;64.00
55313;DHT22;46892;45.668;11.756;2022-08-19T15:24:47;25.60;61.90
55313;DHT22;46892;45.668;11.756;2022-08-19T15:27:13;25.20;61.20
55313;DHT22;46892;45.668;11.756;2022-08-19T15:29:39;24.90;62.70
55313;DHT22;46892;45.668;11.756;2022-08-19T15:32:08;24.60;61.40
55313;DHT22;46892;45.668;11.756;2022-08-19T15:34:34;24.20;61.50
55313;DHT22;46892;45.668;11.756;2022-08-19T15:37:01;24.00;63.20
55313;DHT22;46892;45.668;11.756;2022-08-19T15:39:29;23.80;64.20
55313;DHT22;46892;45.668;11.756;2022-08-19T15:41:55;23.70;65.20
55313;DHT22;46892;45.668;11.756;2022-08-19T15:44:21;23.70;64.20